Jacobs, Kentucky
Current Conditions -  °F | °C
As of 3:10 PM on Monday 26 Jan 2015 (Local Time) from KSYM Reporting Station
Overcast Overcast  
Wind Chill: 19°   Ceiling: 1200
Heat Index: 27°   Visibility: 10mi
Dew Point: 21°   Wind: 7mph
Humidity: 80%   Direction: 290°WNW
Pressure: 29.89"   Gusts: NA
Location:  38.23°N, 83.24°W
Report Text: KSYM 262010Z AUTO 29006KT 10SM OVC012 M03/M06 A2989 RMK AO2
Loading
Personal Weather Stations






























Interactive Weather Map New forecast layout! Learn more

10-Day Weather Forecast

Advertisements
Track Severe Weather on mobile